Impacts TAF Board
For situational awareness. Not to be used for flight planning purposes.
IDs:

KBOS - Boston/Logan Intl, MA, US

Issued at 2324 UTC 15 Oct 2018
Updated at 0204 UTC 16 Oct 2018
Potential Impact None Slight Moderate High
Time0154Z 16/03Z 16/04Z 16/05Z 16/06Z 16/07Z 16/08Z 16/09Z 16/10Z 16/11Z 16/12Z 16/13Z 16/14Z 16/15Z>>
Type OBS PRVL PRVL PRVL PRVL PRVL PRVL PRVL PRVL PRVL PRVL PRVL PRVL PRVL
VIS 10 6 6 >6 >6 >6 >6 >6 >6 >6 >6 >6 >6 >6
CIG 29 25 25 45 45 45 -- -- -- -- -- -- -- --
Cover OVC OVC OVC OVC OVC OVC SCT SCT SCT SCT SKC SKC SKC SKC
FltCat MVFR MVFR MVFR VFR VFR VFR VFR VFR VFR VFR VFR VFR VFR VFR
WX -- -SHRA -SHRA -- -- -- -- -- -- -- -- -- -- --
WDir 230 220 220 270 270 270 280 280 280 280 290 290 290 290
WSpd 21 16 16 17 17 17 18 18 18 18 15 15 15 15
WGst 31 -- -- 31 31 31 32 32 32 32 23 23 23 23
Raw TAF
KBOS 152324Z 1600/1706 21014G22KT P6SM VCSH SCT015 OVC025
  FM160200 22016KT 6SM -SHRA OVC025
  FM160500 27017G31KT P6SM OVC045
  FM160800 28018G32KT P6SM SCT250
  FM161200 29015G23KT P6SM SKC
  FM162200 26010KT P6SM FEW250
  FM170300 24006KT P6SM FEW250


Raw METAR
KBOS 160154Z 23021G31KT 10SM SCT017 OVC029 20/16 A2974 RMK AO2 PK WND 23031/0145 RAE0059 SLP069 P0000 T02000161
KBOS 160054Z 22018G25KT 10SM -RA FEW015 OVC020 19/17 A2976 RMK AO2 RAB47 SLP076 P0000 T01940167
KBOS 152354Z 21015KT 10SM FEW017 BKN023 OVC120 19/16 A2978 RMK AO2 RAE04 SLP082 P0000 60000 T01940161 10200 20161 56037

METAR Board
Radar Display
Forecast Discussion
For situational awareness. Not to be used for flight planning purposes.